sensor_id;sensor_type;location;lat;lon;timestamp;P1;durP1;ratioP1;P2;durP2;ratioP2
22007;SDS011;11168;56.976;24.168;2023-03-01T00:01:25;10.20;;;1.13;;
22007;SDS011;11168;56.976;24.168;2023-03-01T00:03:54;12.32;;;1.48;;
22007;SDS011;11168;56.976;24.168;2023-03-01T00:06:25;10.45;;;1.95;;
22007;SDS011;11168;56.976;24.168;2023-03-01T00:08:53;12.23;;;1.65;;
22007;SDS011;11168;56.976;24.168;2023-03-01T00:11:22;16.88;;;1.50;;
22007;SDS011;11168;56.976;24.168;2023-03-01T00:13:51;11.63;;;1.60;;
22007;SDS011;11168;56.976;24.168;2023-03-01T00:16:21;9.40;;;1.27;;
22007;SDS011;11168;56.976;24.168;2023-03-01T00:18:50;16.38;;;1.40;;
22007;SDS011;11168;56.976;24.168;2023-03-01T00:21:18;15.20;;;1.85;;
22007;SDS011;11168;56.976;24.168;2023-03-01T00:23:47;11.73;;;1.38;;
22007;SDS011;11168;56.976;24.168;2023-03-01T00:26:15;13.10;;;1.90;;
22007;SDS011;11168;56.976;24.168;2023-03-01T00:28:44;10.60;;;1.40;;
22007;SDS011;11168;56.976;24.168;2023-03-01T00:31:18;11.43;;;1.77;;
22007;SDS011;11168;56.976;24.168;2023-03-01T00:33:46;9.65;;;1.67;;
22007;SDS011;11168;56.976;24.168;2023-03-01T00:36:14;16.83;;;1.77;;
22007;SDS011;11168;56.976;24.168;2023-03-01T00:38:43;12.98;;;1.58;;
22007;SDS011;11168;56.976;24.168;2023-03-01T00:41:12;12.63;;;1.60;;
22007;SDS011;11168;56.976;24.168;2023-03-01T00:43:41;14.95;;;1.50;;
22007;SDS011;11168;56.976;24.168;2023-03-01T00:46:09;9.73;;;1.30;;
22007;SDS011;11168;56.976;24.168;2023-03-01T00:48:41;5.25;;;1.30;;
22007;SDS011;11168;56.976;24.168;2023-03-01T00:51:10;6.60;;;1.17;;
22007;SDS011;11168;56.976;24.168;2023-03-01T00:53:46;8.35;;;1.33;;
22007;SDS011;11168;56.976;24.168;2023-03-01T00:56:13;10.38;;;1.65;;
22007;SDS011;11168;56.976;24.168;2023-03-01T00:58:41;12.70;;;1.38;;
22007;SDS011;11168;56.976;24.168;2023-03-01T01:01:13;6.30;;;0.82;;
22007;SDS011;11168;56.976;24.168;2023-03-01T01:06:15;13.23;;;1.48;;
22007;SDS011;11168;56.976;24.168;2023-03-01T01:08:47;9.25;;;1.30;;
22007;SDS011;11168;56.976;24.168;2023-03-01T01:11:14;9.32;;;1.30;;
22007;SDS011;11168;56.976;24.168;2023-03-01T01:13:41;11.27;;;1.30;;
22007;SDS011;11168;56.976;24.168;2023-03-01T01:16:10;11.90;;;1.50;;
22007;SDS011;11168;56.976;24.168;2023-03-01T01:18:38;13.18;;;1.30;;
22007;SDS011;11168;56.976;24.168;2023-03-01T01:21:06;8.57;;;1.35;;
22007;SDS011;11168;56.976;24.168;2023-03-01T01:23:35;7.30;;;1.48;;
22007;SDS011;11168;56.976;24.168;2023-03-01T01:26:04;14.13;;;2.10;;
22007;SDS011;11168;56.976;24.168;2023-03-01T01:28:32;13.73;;;2.60;;
22007;SDS011;11168;56.976;24.168;2023-03-01T01:30:59;16.67;;;6.57;;
22007;SDS011;11168;56.976;24.168;2023-03-01T01:33:26;21.80;;;8.73;;
22007;SDS011;11168;56.976;24.168;2023-03-01T01:35:54;25.23;;;11.90;;
22007;SDS011;11168;56.976;24.168;2023-03-01T01:38:21;34.20;;;16.05;;
22007;SDS011;11168;56.976;24.168;2023-03-01T01:40:49;29.83;;;17.48;;
22007;SDS011;11168;56.976;24.168;2023-03-01T01:43:21;27.88;;;17.40;;
22007;SDS011;11168;56.976;24.168;2023-03-01T01:46:05;36.05;;;18.55;;
22007;SDS011;11168;56.976;24.168;2023-03-01T01:48:46;37.85;;;20.20;;
22007;SDS011;11168;56.976;24.168;2023-03-01T01:51:20;38.13;;;20.70;;
22007;SDS011;11168;56.976;24.168;2023-03-01T01:53:53;37.47;;;19.42;;
22007;SDS011;11168;56.976;24.168;2023-03-01T01:56:24;36.30;;;18.45;;
22007;SDS011;11168;56.976;24.168;2023-03-01T01:58:55;37.28;;;18.13;;
22007;SDS011;11168;56.976;24.168;2023-03-01T02:01:22;33.00;;;15.68;;
22007;SDS011;11168;56.976;24.168;2023-03-01T02:03:49;30.52;;;15.75;;
22007;SDS011;11168;56.976;24.168;2023-03-01T02:06:27;27.25;;;14.45;;
22007;SDS011;11168;56.976;24.168;2023-03-01T02:08:59;32.20;;;14.90;;
22007;SDS011;11168;56.976;24.168;2023-03-01T02:11:31;27.60;;;13.57;;
22007;SDS011;11168;56.976;24.168;2023-03-01T02:13:59;32.15;;;14.35;;
22007;SDS011;11168;56.976;24.168;2023-03-01T02:16:26;29.73;;;17.65;;
22007;SDS011;11168;56.976;24.168;2023-03-01T02:18:53;29.88;;;18.63;;
22007;SDS011;11168;56.976;24.168;2023-03-01T02:27:07;31.07;;;17.33;;
22007;SDS011;11168;56.976;24.168;2023-03-01T02:29:34;32.08;;;15.50;;
22007;SDS011;11168;56.976;24.168;2023-03-01T02:32:02;28.88;;;12.68;;
22007;SDS011;11168;56.976;24.168;2023-03-01T02:34:31;30.52;;;13.48;;
22007;SDS011;11168;56.976;24.168;2023-03-01T02:37:08;35.45;;;16.50;;
22007;SDS011;11168;56.976;24.168;2023-03-01T02:39:44;30.08;;;18.77;;
22007;SDS011;11168;56.976;24.168;2023-03-01T02:42:15;35.42;;;20.85;;
22007;SDS011;11168;56.976;24.168;2023-03-01T02:44:48;41.03;;;23.48;;
22007;SDS011;11168;56.976;24.168;2023-03-01T02:47:16;43.38;;;21.02;;
22007;SDS011;11168;56.976;24.168;2023-03-01T02:49:43;35.65;;;19.20;;
22007;SDS011;11168;56.976;24.168;2023-03-01T02:55:19;27.02;;;13.77;;
22007;SDS011;11168;56.976;24.168;2023-03-01T02:57:47;23.33;;;10.52;;
22007;SDS011;11168;56.976;24.168;2023-03-01T03:00:19;20.27;;;7.78;;
22007;SDS011;11168;56.976;24.168;2023-03-01T03:02:49;16.52;;;6.75;;
22007;SDS011;11168;56.976;24.168;2023-03-01T03:05:20;14.98;;;4.95;;
22007;SDS011;11168;56.976;24.168;2023-03-01T03:07:49;12.93;;;3.63;;
22007;SDS011;11168;56.976;24.168;2023-03-01T03:10:23;16.10;;;2.72;;
22007;SDS011;11168;56.976;24.168;2023-03-01T03:12:56;15.23;;;2.40;;
22007;SDS011;11168;56.976;24.168;2023-03-01T03:15:25;14.27;;;1.73;;
22007;SDS011;11168;56.976;24.168;2023-03-01T03:17:53;11.80;;;1.70;;
22007;SDS011;11168;56.976;24.168;2023-03-01T03:20:22;15.48;;;1.77;;
22007;SDS011;11168;56.976;24.168;2023-03-01T03:22:52;13.25;;;1.60;;
22007;SDS011;11168;56.976;24.168;2023-03-01T03:25:20;15.93;;;1.35;;
22007;SDS011;11168;56.976;24.168;2023-03-01T03:27:49;10.13;;;1.45;;
22007;SDS011;11168;56.976;24.168;2023-03-01T03:30:24;16.35;;;1.45;;
22007;SDS011;11168;56.976;24.168;2023-03-01T03:32:53;7.60;;;1.10;;
22007;SDS011;11168;56.976;24.168;2023-03-01T03:35:21;10.43;;;1.52;;
22007;SDS011;11168;56.976;24.168;2023-03-01T03:37:51;12.90;;;1.73;;
22007;SDS011;11168;56.976;24.168;2023-03-01T03:40:37;13.85;;;1.77;;
22007;SDS011;11168;56.976;24.168;2023-03-01T03:43:09;10.13;;;1.25;;
22007;SDS011;11168;56.976;24.168;2023-03-01T03:45:39;14.65;;;1.20;;
22007;SDS011;11168;56.976;24.168;2023-03-01T03:48:07;19.88;;;2.03;;
22007;SDS011;11168;56.976;24.168;2023-03-01T03:50:37;8.68;;;1.73;;
22007;SDS011;11168;56.976;24.168;2023-03-01T03:53:06;16.83;;;1.70;;
22007;SDS011;11168;56.976;24.168;2023-03-01T03:55:35;12.07;;;1.90;;
22007;SDS011;11168;56.976;24.168;2023-03-01T03:58:06;12.30;;;2.45;;
22007;SDS011;11168;56.976;24.168;2023-03-01T04:00:38;17.27;;;4.30;;
22007;SDS011;11168;56.976;24.168;2023-03-01T04:03:08;22.20;;;6.28;;
22007;SDS011;11168;56.976;24.168;2023-03-01T04:05:36;25.90;;;9.85;;
22007;SDS011;11168;56.976;24.168;2023-03-01T04:08:04;27.23;;;13.95;;
22007;SDS011;11168;56.976;24.168;2023-03-01T04:10:37;29.67;;;15.55;;
22007;SDS011;11168;56.976;24.168;2023-03-01T04:13:07;31.02;;;17.08;;
22007;SDS011;11168;56.976;24.168;2023-03-01T04:15:36;37.88;;;19.30;;
22007;SDS011;11168;56.976;24.168;2023-03-01T04:18:04;34.08;;;17.67;;
22007;SDS011;11168;56.976;24.168;2023-03-01T04:20:32;30.70;;;17.33;;
22007;SDS011;11168;56.976;24.168;2023-03-01T04:23:02;34.80;;;18.52;;
22007;SDS011;11168;56.976;24.168;2023-03-01T04:25:41;38.70;;;16.23;;
22007;SDS011;11168;56.976;24.168;2023-03-01T04:28:11;26.92;;;16.58;;
22007;SDS011;11168;56.976;24.168;2023-03-01T04:30:38;31.83;;;15.20;;
22007;SDS011;11168;56.976;24.168;2023-03-01T04:33:09;30.77;;;15.55;;
22007;SDS011;11168;56.976;24.168;2023-03-01T04:35:36;27.70;;;13.75;;
22007;SDS011;11168;56.976;24.168;2023-03-01T04:38:04;26.80;;;10.95;;
22007;SDS011;11168;56.976;24.168;2023-03-01T04:40:32;16.25;;;6.38;;
22007;SDS011;11168;56.976;24.168;2023-03-01T04:42:59;15.57;;;4.05;;
22007;SDS011;11168;56.976;24.168;2023-03-01T04:45:27;14.20;;;3.40;;
22007;SDS011;11168;56.976;24.168;2023-03-01T04:47:54;15.85;;;2.95;;
22007;SDS011;11168;56.976;24.168;2023-03-01T04:50:21;15.48;;;3.28;;
22007;SDS011;11168;56.976;24.168;2023-03-01T04:52:50;11.05;;;3.85;;
22007;SDS011;11168;56.976;24.168;2023-03-01T04:55:17;13.75;;;3.90;;
22007;SDS011;11168;56.976;24.168;2023-03-01T04:57:44;16.05;;;4.32;;
22007;SDS011;11168;56.976;24.168;2023-03-01T05:00:12;13.35;;;3.58;;
22007;SDS011;11168;56.976;24.168;2023-03-01T05:05:14;10.48;;;2.55;;
22007;SDS011;11168;56.976;24.168;2023-03-01T05:07:41;11.55;;;2.28;;
22007;SDS011;11168;56.976;24.168;2023-03-01T05:10:08;6.40;;;1.40;;
22007;SDS011;11168;56.976;24.168;2023-03-01T05:12:36;11.07;;;1.30;;
22007;SDS011;11168;56.976;24.168;2023-03-01T05:15:04;10.60;;;1.27;;
22007;SDS011;11168;56.976;24.168;2023-03-01T05:17:33;9.50;;;1.60;;
22007;SDS011;11168;56.976;24.168;2023-03-01T05:20:00;6.15;;;1.13;;
22007;SDS011;11168;56.976;24.168;2023-03-01T05:22:31;11.65;;;1.67;;
22007;SDS011;11168;56.976;24.168;2023-03-01T05:24:59;3.95;;;0.90;;
22007;SDS011;11168;56.976;24.168;2023-03-01T05:27:25;7.93;;;1.27;;
22007;SDS011;11168;56.976;24.168;2023-03-01T05:29:53;9.68;;;1.17;;
22007;SDS011;11168;56.976;24.168;2023-03-01T05:32:19;6.15;;;1.10;;
22007;SDS011;11168;56.976;24.168;2023-03-01T05:34:47;11.90;;;2.03;;
22007;SDS011;11168;56.976;24.168;2023-03-01T05:37:13;5.97;;;1.30;;
22007;SDS011;11168;56.976;24.168;2023-03-01T05:39:40;9.48;;;1.40;;
22007;SDS011;11168;56.976;24.168;2023-03-01T05:42:08;9.60;;;1.40;;
22007;SDS011;11168;56.976;24.168;2023-03-01T05:44:37;7.97;;;1.45;;
22007;SDS011;11168;56.976;24.168;2023-03-01T05:47:04;9.23;;;1.52;;
22007;SDS011;11168;56.976;24.168;2023-03-01T05:49:31;13.45;;;1.55;;
22007;SDS011;11168;56.976;24.168;2023-03-01T05:51:58;11.35;;;1.75;;
22007;SDS011;11168;56.976;24.168;2023-03-01T05:54:25;7.13;;;1.45;;
22007;SDS011;11168;56.976;24.168;2023-03-01T05:56:52;13.48;;;1.67;;
22007;SDS011;11168;56.976;24.168;2023-03-01T05:59:19;12.35;;;1.48;;
22007;SDS011;11168;56.976;24.168;2023-03-01T06:01:46;7.10;;;1.40;;
22007;SDS011;11168;56.976;24.168;2023-03-01T06:04:13;18.50;;;1.73;;
22007;SDS011;11168;56.976;24.168;2023-03-01T06:06:39;8.82;;;1.55;;
22007;SDS011;11168;56.976;24.168;2023-03-01T06:09:07;11.25;;;1.48;;
22007;SDS011;11168;56.976;24.168;2023-03-01T06:11:36;11.10;;;1.40;;
22007;SDS011;11168;56.976;24.168;2023-03-01T06:14:03;11.77;;;1.25;;
22007;SDS011;11168;56.976;24.168;2023-03-01T06:16:32;11.32;;;1.27;;
22007;SDS011;11168;56.976;24.168;2023-03-01T06:18:59;12.93;;;1.40;;
22007;SDS011;11168;56.976;24.168;2023-03-01T06:21:26;10.40;;;1.55;;
22007;SDS011;11168;56.976;24.168;2023-03-01T06:23:53;9.13;;;1.48;;
22007;SDS011;11168;56.976;24.168;2023-03-01T06:26:20;11.27;;;1.50;;
22007;SDS011;11168;56.976;24.168;2023-03-01T06:28:47;10.80;;;1.65;;
22007;SDS011;11168;56.976;24.168;2023-03-01T06:31:14;7.30;;;2.15;;
22007;SDS011;11168;56.976;24.168;2023-03-01T06:33:41;12.02;;;2.90;;
22007;SDS011;11168;56.976;24.168;2023-03-01T06:36:08;20.67;;;7.72;;
22007;SDS011;11168;56.976;24.168;2023-03-01T06:38:36;19.55;;;9.23;;
22007;SDS011;11168;56.976;24.168;2023-03-01T06:41:03;28.80;;;13.85;;
22007;SDS011;11168;56.976;24.168;2023-03-01T06:43:30;32.20;;;17.35;;
22007;SDS011;11168;56.976;24.168;2023-03-01T06:45:57;33.88;;;19.58;;
22007;SDS011;11168;56.976;24.168;2023-03-01T06:48:24;37.28;;;19.50;;
22007;SDS011;11168;56.976;24.168;2023-03-01T06:50:51;34.83;;;18.60;;
22007;SDS011;11168;56.976;24.168;2023-03-01T06:53:18;33.30;;;17.80;;
22007;SDS011;11168;56.976;24.168;2023-03-01T06:55:45;28.30;;;16.85;;
22007;SDS011;11168;56.976;24.168;2023-03-01T06:58:12;31.58;;;15.00;;
22007;SDS011;11168;56.976;24.168;2023-03-01T07:00:39;21.55;;;11.70;;
22007;SDS011;11168;56.976;24.168;2023-03-01T07:03:08;25.15;;;11.32;;
22007;SDS011;11168;56.976;24.168;2023-03-01T07:05:35;14.75;;;8.30;;
22007;SDS011;11168;56.976;24.168;2023-03-01T07:08:02;20.40;;;6.65;;
22007;SDS011;11168;56.976;24.168;2023-03-01T07:10:29;12.38;;;4.88;;
22007;SDS011;11168;56.976;24.168;2023-03-01T07:12:56;15.35;;;3.55;;
22007;SDS011;11168;56.976;24.168;2023-03-01T07:15:24;11.02;;;3.72;;
22007;SDS011;11168;56.976;24.168;2023-03-01T07:17:52;11.93;;;2.55;;
22007;SDS011;11168;56.976;24.168;2023-03-01T07:20:20;7.97;;;2.05;;
22007;SDS011;11168;56.976;24.168;2023-03-01T07:22:52;14.88;;;3.05;;
22007;SDS011;11168;56.976;24.168;2023-03-01T07:25:19;11.70;;;1.95;;
22007;SDS011;11168;56.976;24.168;2023-03-01T07:27:53;17.92;;;3.45;;
22007;SDS011;11168;56.976;24.168;2023-03-01T07:30:20;15.10;;;3.22;;
22007;SDS011;11168;56.976;24.168;2023-03-01T07:32:48;11.43;;;2.17;;
22007;SDS011;11168;56.976;24.168;2023-03-01T07:35:15;12.65;;;1.80;;
22007;SDS011;11168;56.976;24.168;2023-03-01T07:37:42;6.85;;;1.70;;
22007;SDS011;11168;56.976;24.168;2023-03-01T07:40:09;7.10;;;1.70;;
22007;SDS011;11168;56.976;24.168;2023-03-01T07:42:37;13.23;;;3.17;;
22007;SDS011;11168;56.976;24.168;2023-03-01T07:45:04;16.48;;;4.68;;
22007;SDS011;11168;56.976;24.168;2023-03-01T07:47:32;11.52;;;2.60;;
22007;SDS011;11168;56.976;24.168;2023-03-01T07:49:59;11.00;;;2.40;;
22007;SDS011;11168;56.976;24.168;2023-03-01T07:52:27;10.05;;;1.98;;
22007;SDS011;11168;56.976;24.168;2023-03-01T07:54:54;9.13;;;1.60;;
22007;SDS011;11168;56.976;24.168;2023-03-01T07:57:21;9.27;;;1.25;;
22007;SDS011;11168;56.976;24.168;2023-03-01T07:59:48;8.32;;;3.17;;
22007;SDS011;11168;56.976;24.168;2023-03-01T08:02:15;9.20;;;2.40;;
22007;SDS011;11168;56.976;24.168;2023-03-01T08:04:42;11.63;;;2.03;;
22007;SDS011;11168;56.976;24.168;2023-03-01T08:07:09;10.88;;;1.98;;
22007;SDS011;11168;56.976;24.168;2023-03-01T08:09:36;7.30;;;1.38;;
22007;SDS011;11168;56.976;24.168;2023-03-01T08:12:04;11.38;;;1.70;;
22007;SDS011;11168;56.976;24.168;2023-03-01T08:14:34;6.10;;;1.60;;
22007;SDS011;11168;56.976;24.168;2023-03-01T08:17:01;11.40;;;2.20;;
22007;SDS011;11168;56.976;24.168;2023-03-01T08:19:29;5.32;;;1.98;;
22007;SDS011;11168;56.976;24.168;2023-03-01T08:21:57;9.13;;;1.77;;
22007;SDS011;11168;56.976;24.168;2023-03-01T08:24:24;10.90;;;2.25;;
22007;SDS011;11168;56.976;24.168;2023-03-01T08:26:51;13.13;;;1.92;;
22007;SDS011;11168;56.976;24.168;2023-03-01T08:29:18;9.25;;;1.90;;
22007;SDS011;11168;56.976;24.168;2023-03-01T08:31:45;9.32;;;1.95;;
22007;SDS011;11168;56.976;24.168;2023-03-01T08:34:14;7.68;;;1.60;;
22007;SDS011;11168;56.976;24.168;2023-03-01T08:36:43;10.18;;;1.70;;
22007;SDS011;11168;56.976;24.168;2023-03-01T08:39:13;7.30;;;1.70;;
22007;SDS011;11168;56.976;24.168;2023-03-01T08:41:42;6.82;;;1.80;;
22007;SDS011;11168;56.976;24.168;2023-03-01T08:44:12;9.45;;;2.17;;
22007;SDS011;11168;56.976;24.168;2023-03-01T08:46:43;8.35;;;1.85;;
22007;SDS011;11168;56.976;24.168;2023-03-01T08:49:13;11.43;;;1.80;;
22007;SDS011;11168;56.976;24.168;2023-03-01T08:51:41;6.18;;;1.67;;
22007;SDS011;11168;56.976;24.168;2023-03-01T08:54:10;8.05;;;1.75;;
22007;SDS011;11168;56.976;24.168;2023-03-01T08:56:38;9.93;;;1.80;;
22007;SDS011;11168;56.976;24.168;2023-03-01T08:59:05;8.73;;;2.28;;
22007;SDS011;11168;56.976;24.168;2023-03-01T09:01:33;9.70;;;2.35;;
22007;SDS011;11168;56.976;24.168;2023-03-01T09:04:00;8.85;;;1.88;;
22007;SDS011;11168;56.976;24.168;2023-03-01T09:06:29;7.47;;;2.33;;
22007;SDS011;11168;56.976;24.168;2023-03-01T09:08:58;4.60;;;1.50;;
22007;SDS011;11168;56.976;24.168;2023-03-01T09:11:26;6.97;;;1.80;;
22007;SDS011;11168;56.976;24.168;2023-03-01T09:13:54;9.60;;;2.00;;
22007;SDS011;11168;56.976;24.168;2023-03-01T09:16:23;12.05;;;2.60;;
22007;SDS011;11168;56.976;24.168;2023-03-01T09:18:51;10.90;;;2.10;;
22007;SDS011;11168;56.976;24.168;2023-03-01T09:21:20;6.05;;;1.55;;
22007;SDS011;11168;56.976;24.168;2023-03-01T09:24:05;7.97;;;1.60;;
22007;SDS011;11168;56.976;24.168;2023-03-01T09:26:33;4.88;;;1.45;;
22007;SDS011;11168;56.976;24.168;2023-03-01T09:29:00;5.45;;;1.70;;
22007;SDS011;11168;56.976;24.168;2023-03-01T09:31:27;6.07;;;1.63;;
22007;SDS011;11168;56.976;24.168;2023-03-01T09:33:54;7.15;;;2.20;;
22007;SDS011;11168;56.976;24.168;2023-03-01T09:36:22;10.23;;;2.50;;
22007;SDS011;11168;56.976;24.168;2023-03-01T09:38:51;5.95;;;2.40;;
22007;SDS011;11168;56.976;24.168;2023-03-01T09:41:42;7.47;;;2.35;;
22007;SDS011;11168;56.976;24.168;2023-03-01T09:46:45;7.07;;;2.00;;
22007;SDS011;11168;56.976;24.168;2023-03-01T09:49:26;7.90;;;1.80;;
22007;SDS011;11168;56.976;24.168;2023-03-01T09:54:51;8.23;;;1.75;;
22007;SDS011;11168;56.976;24.168;2023-03-01T10:03:20;5.47;;;1.98;;
22007;SDS011;11168;56.976;24.168;2023-03-01T10:05:56;6.78;;;1.65;;
22007;SDS011;11168;56.976;24.168;2023-03-01T10:08:40;15.15;;;2.20;;
22007;SDS011;11168;56.976;24.168;2023-03-01T10:11:21;5.00;;;1.45;;
22007;SDS011;11168;56.976;24.168;2023-03-01T10:16:57;7.80;;;1.58;;
22007;SDS011;11168;56.976;24.168;2023-03-01T10:19:31;5.22;;;1.52;;
22007;SDS011;11168;56.976;24.168;2023-03-01T10:22:04;6.03;;;1.40;;
22007;SDS011;11168;56.976;24.168;2023-03-01T10:24:49;4.35;;;1.60;;
22007;SDS011;11168;56.976;24.168;2023-03-01T10:30:12;7.20;;;1.60;;
22007;SDS011;11168;56.976;24.168;2023-03-01T10:33:01;5.82;;;1.55;;
22007;SDS011;11168;56.976;24.168;2023-03-01T10:35:31;6.38;;;1.80;;
22007;SDS011;11168;56.976;24.168;2023-03-01T10:38:04;5.97;;;1.80;;
22007;SDS011;11168;56.976;24.168;2023-03-01T10:40:36;6.60;;;1.98;;
22007;SDS011;11168;56.976;24.168;2023-03-01T10:46:30;8.18;;;1.73;;
22007;SDS011;11168;56.976;24.168;2023-03-01T10:51:47;4.05;;;1.50;;
22007;SDS011;11168;56.976;24.168;2023-03-01T10:54:17;6.00;;;1.80;;
22007;SDS011;11168;56.976;24.168;2023-03-01T10:56:50;5.40;;;1.58;;
22007;SDS011;11168;56.976;24.168;2023-03-01T10:59:36;6.53;;;1.40;;
22007;SDS011;11168;56.976;24.168;2023-03-01T11:02:17;3.42;;;0.98;;
22007;SDS011;11168;56.976;24.168;2023-03-01T11:07:49;5.72;;;1.25;;
22007;SDS011;11168;56.976;24.168;2023-03-01T11:13:14;11.77;;;2.80;;
22007;SDS011;11168;56.976;24.168;2023-03-01T11:15:43;5.13;;;2.33;;
22007;SDS011;11168;56.976;24.168;2023-03-01T11:18:30;7.40;;;3.00;;
22007;SDS011;11168;56.976;24.168;2023-03-01T11:21:13;6.43;;;1.92;;
22007;SDS011;11168;56.976;24.168;2023-03-01T11:23:42;4.28;;;2.08;;
22007;SDS011;11168;56.976;24.168;2023-03-01T11:26:12;5.57;;;2.40;;
22007;SDS011;11168;56.976;24.168;2023-03-01T11:28:51;6.80;;;2.70;;
22007;SDS011;11168;56.976;24.168;2023-03-01T11:31:24;6.63;;;2.22;;
22007;SDS011;11168;56.976;24.168;2023-03-01T11:33:57;7.85;;;3.03;;
22007;SDS011;11168;56.976;24.168;2023-03-01T11:36:41;6.78;;;3.00;;
22007;SDS011;11168;56.976;24.168;2023-03-01T11:39:27;6.80;;;2.70;;
22007;SDS011;11168;56.976;24.168;2023-03-01T11:42:17;16.50;;;7.03;;
22007;SDS011;11168;56.976;24.168;2023-03-01T11:47:43;23.85;;;17.45;;
22007;SDS011;11168;56.976;24.168;2023-03-01T11:50:38;24.40;;;16.65;;
22007;SDS011;11168;56.976;24.168;2023-03-01T11:56:11;28.92;;;19.75;;
22007;SDS011;11168;56.976;24.168;2023-03-01T11:59:16;25.40;;;15.02;;
22007;SDS011;11168;56.976;24.168;2023-03-01T12:10:28;6.22;;;3.78;;
22007;SDS011;11168;56.976;24.168;2023-03-01T12:19:01;8.27;;;4.47;;
22007;SDS011;11168;56.976;24.168;2023-03-01T12:41:11;38.63;;;21.88;;
22007;SDS011;11168;56.976;24.168;2023-03-01T12:49:43;28.75;;;17.40;;
22007;SDS011;11168;56.976;24.168;2023-03-01T12:52:17;27.88;;;15.98;;
22007;SDS011;11168;56.976;24.168;2023-03-01T12:54:52;22.08;;;14.43;;
22007;SDS011;11168;56.976;24.168;2023-03-01T12:57:38;24.33;;;14.13;;
22007;SDS011;11168;56.976;24.168;2023-03-01T13:05:39;25.40;;;18.17;;
22007;SDS011;11168;56.976;24.168;2023-03-01T13:08:42;33.33;;;23.08;;
22007;SDS011;11168;56.976;24.168;2023-03-01T13:11:19;40.22;;;26.65;;
22007;SDS011;11168;56.976;24.168;2023-03-01T13:13:47;41.33;;;27.10;;
22007;SDS011;11168;56.976;24.168;2023-03-01T13:16:39;44.85;;;29.20;;
22007;SDS011;11168;56.976;24.168;2023-03-01T13:19:13;38.45;;;22.17;;
22007;SDS011;11168;56.976;24.168;2023-03-01T13:21:47;31.00;;;20.75;;
22007;SDS011;11168;56.976;24.168;2023-03-01T13:24:29;34.67;;;20.77;;
22007;SDS011;11168;56.976;24.168;2023-03-01T13:32:27;13.25;;;8.77;;
22007;SDS011;11168;56.976;24.168;2023-03-01T13:37:46;11.82;;;6.10;;
22007;SDS011;11168;56.976;24.168;2023-03-01T13:42:55;12.95;;;7.00;;
22007;SDS011;11168;56.976;24.168;2023-03-01T13:45:36;9.05;;;7.18;;
22007;SDS011;11168;56.976;24.168;2023-03-01T13:48:17;12.00;;;6.18;;
22007;SDS011;11168;56.976;24.168;2023-03-01T13:50:53;7.57;;;4.72;;
22007;SDS011;11168;56.976;24.168;2023-03-01T13:53:25;5.53;;;3.28;;
22007;SDS011;11168;56.976;24.168;2023-03-01T13:56:00;8.23;;;1.95;;
22007;SDS011;11168;56.976;24.168;2023-03-01T13:58:43;8.25;;;1.70;;
22007;SDS011;11168;56.976;24.168;2023-03-01T14:03:58;2.55;;;1.10;;
22007;SDS011;11168;56.976;24.168;2023-03-01T14:06:29;3.60;;;0.98;;
22007;SDS011;11168;56.976;24.168;2023-03-01T14:09:05;5.75;;;1.10;;
22007;SDS011;11168;56.976;24.168;2023-03-01T14:14:48;2.65;;;0.90;;
22007;SDS011;11168;56.976;24.168;2023-03-01T14:19:55;7.10;;;3.60;;
22007;SDS011;11168;56.976;24.168;2023-03-01T14:22:28;9.40;;;5.47;;
22007;SDS011;11168;56.976;24.168;2023-03-01T14:25:00;11.48;;;6.72;;
22007;SDS011;11168;56.976;24.168;2023-03-01T14:27:38;12.73;;;8.85;;
22007;SDS011;11168;56.976;24.168;2023-03-01T14:32:58;89.32;;;48.50;;
22007;SDS011;11168;56.976;24.168;2023-03-01T14:35:31;25.95;;;14.75;;
22007;SDS011;11168;56.976;24.168;2023-03-01T14:38:00;23.88;;;15.90;;
22007;SDS011;11168;56.976;24.168;2023-03-01T14:40:29;26.17;;;17.15;;
22007;SDS011;11168;56.976;24.168;2023-03-01T14:43:09;27.60;;;18.73;;
22007;SDS011;11168;56.976;24.168;2023-03-01T14:45:38;29.80;;;15.00;;
22007;SDS011;11168;56.976;24.168;2023-03-01T14:48:06;18.48;;;10.15;;
22007;SDS011;11168;56.976;24.168;2023-03-01T14:50:41;14.82;;;5.80;;
22007;SDS011;11168;56.976;24.168;2023-03-01T14:53:27;7.47;;;3.90;;
22007;SDS011;11168;56.976;24.168;2023-03-01T14:56:02;6.18;;;2.70;;
22007;SDS011;11168;56.976;24.168;2023-03-01T14:58:32;4.95;;;2.47;;
22007;SDS011;11168;56.976;24.168;2023-03-01T15:01:01;10.30;;;2.88;;
22007;SDS011;11168;56.976;24.168;2023-03-01T15:03:31;6.00;;;1.98;;
22007;SDS011;11168;56.976;24.168;2023-03-01T15:06:00;5.72;;;1.83;;
22007;SDS011;11168;56.976;24.168;2023-03-01T15:08:28;4.90;;;1.20;;
22007;SDS011;11168;56.976;24.168;2023-03-01T15:11:42;5.20;;;1.15;;
22007;SDS011;11168;56.976;24.168;2023-03-01T15:13:53;6.97;;;1.33;;
22007;SDS011;11168;56.976;24.168;2023-03-01T15:16:27;7.95;;;1.58;;
22007;SDS011;11168;56.976;24.168;2023-03-01T15:18:58;5.63;;;1.67;;
22007;SDS011;11168;56.976;24.168;2023-03-01T15:21:32;6.55;;;1.65;;
22007;SDS011;11168;56.976;24.168;2023-03-01T15:24:34;7.45;;;2.00;;
22007;SDS011;11168;56.976;24.168;2023-03-01T15:26:56;6.15;;;2.60;;
22007;SDS011;11168;56.976;24.168;2023-03-01T15:29:33;8.52;;;2.50;;
22007;SDS011;11168;56.976;24.168;2023-03-01T15:32:22;9.02;;;4.25;;
22007;SDS011;11168;56.976;24.168;2023-03-01T15:34:59;4.93;;;2.38;;
22007;SDS011;11168;56.976;24.168;2023-03-01T15:40:17;7.95;;;2.17;;
22007;SDS011;11168;56.976;24.168;2023-03-01T15:42:50;8.15;;;2.10;;
22007;SDS011;11168;56.976;24.168;2023-03-01T15:45:22;6.97;;;2.40;;
22007;SDS011;11168;56.976;24.168;2023-03-01T15:47:54;6.75;;;2.08;;
22007;SDS011;11168;56.976;24.168;2023-03-01T15:50:32;6.90;;;2.40;;
22007;SDS011;11168;56.976;24.168;2023-03-01T15:53:01;9.40;;;2.20;;
22007;SDS011;11168;56.976;24.168;2023-03-01T15:55:35;9.70;;;3.20;;
22007;SDS011;11168;56.976;24.168;2023-03-01T15:58:21;11.05;;;2.97;;
22007;SDS011;11168;56.976;24.168;2023-03-01T16:00:50;7.28;;;2.40;;
22007;SDS011;11168;56.976;24.168;2023-03-01T16:03:27;7.38;;;1.85;;
22007;SDS011;11168;56.976;24.168;2023-03-01T16:05:55;8.20;;;2.10;;
22007;SDS011;11168;56.976;24.168;2023-03-01T16:08:22;10.82;;;2.42;;
22007;SDS011;11168;56.976;24.168;2023-03-01T16:10:49;6.97;;;2.00;;
22007;SDS011;11168;56.976;24.168;2023-03-01T16:13:17;7.05;;;2.25;;
22007;SDS011;11168;56.976;24.168;2023-03-01T16:15:45;7.18;;;2.10;;
22007;SDS011;11168;56.976;24.168;2023-03-01T16:18:12;6.20;;;1.92;;
22007;SDS011;11168;56.976;24.168;2023-03-01T16:20:40;11.32;;;2.78;;
22007;SDS011;11168;56.976;24.168;2023-03-01T16:23:08;4.63;;;2.00;;
22007;SDS011;11168;56.976;24.168;2023-03-01T16:25:37;9.35;;;2.10;;
22007;SDS011;11168;56.976;24.168;2023-03-01T16:28:05;7.45;;;2.20;;
22007;SDS011;11168;56.976;24.168;2023-03-01T16:33:04;5.55;;;1.70;;
22007;SDS011;11168;56.976;24.168;2023-03-01T16:35:54;8.43;;;1.50;;
22007;SDS011;11168;56.976;24.168;2023-03-01T16:38:22;5.13;;;1.80;;
22007;SDS011;11168;56.976;24.168;2023-03-01T16:40:51;3.53;;;1.35;;
22007;SDS011;11168;56.976;24.168;2023-03-01T16:43:18;5.57;;;1.83;;
22007;SDS011;11168;56.976;24.168;2023-03-01T16:45:45;5.28;;;1.65;;
22007;SDS011;11168;56.976;24.168;2023-03-01T16:48:12;9.63;;;2.20;;